createdAt,value
2022-12-23T00:00:13.496Z,45.50
2022-12-23T00:01:13.706Z,43.60
2022-12-23T00:02:14.123Z,43.60
2022-12-23T00:03:14.367Z,43.10
2022-12-23T00:04:14.492Z,43.80
2022-12-23T00:05:14.586Z,43.30
2022-12-23T00:06:14.749Z,44.90
2022-12-23T00:07:14.995Z,47.30
2022-12-23T00:08:15.140Z,49.70
2022-12-23T00:09:15.339Z,46.90
2022-12-23T00:10:15.523Z,50.00
2022-12-23T00:11:15.732Z,49.60
2022-12-23T00:12:15.957Z,42.80
2022-12-23T00:13:16.134Z,44.70
2022-12-23T00:14:21.597Z,42.40
2022-12-23T00:15:16.506Z,51.80
2022-12-23T00:16:16.791Z,46.00
2022-12-23T00:17:22.561Z,48.30
2022-12-23T00:18:17.098Z,45.50
2022-12-23T00:19:17.332Z,44.50
2022-12-23T00:20:17.448Z,38.90
2022-12-23T00:21:17.627Z,40.60
2022-12-23T00:22:17.816Z,49.80
2022-12-23T00:23:18.016Z,42.00
2022-12-23T00:24:18.242Z,41.30
2022-12-23T00:25:18.395Z,42.60
2022-12-23T00:26:18.620Z,40.70
2022-12-23T00:27:18.809Z,44.90
2022-12-23T00:28:19.040Z,46.10
2022-12-23T00:29:19.292Z,40.00
2022-12-23T00:30:19.449Z,43.60
2022-12-23T00:31:19.713Z,43.00
2022-12-23T00:32:19.977Z,44.70
2022-12-23T00:33:20.086Z,42.10
2022-12-23T00:34:20.439Z,40.30
2022-12-23T00:35:20.537Z,41.50
2022-12-23T00:36:20.842Z,41.60
2022-12-23T00:37:20.963Z,50.80
2022-12-23T00:38:21.150Z,45.70
2022-12-23T00:39:21.368Z,40.60
2022-12-23T00:40:21.578Z,47.40
2022-12-23T00:41:21.829Z,49.60
2022-12-23T00:42:22.027Z,50.30
2022-12-23T00:43:22.287Z,47.50
2022-12-23T00:44:22.481Z,48.00
2022-12-23T00:45:22.687Z,42.90
2022-12-23T00:46:22.964Z,50.60
2022-12-23T00:47:23.249Z,47.80
2022-12-23T00:48:23.328Z,48.20
2022-12-23T00:49:23.573Z,44.20
2022-12-23T00:50:23.774Z,50.90
2022-12-23T00:51:23.998Z,45.50
2022-12-23T00:52:24.312Z,45.60
2022-12-23T00:53:24.442Z,44.00
2022-12-23T00:54:24.655Z,45.30
2022-12-23T00:55:24.891Z,55.80
2022-12-23T00:56:25.099Z,49.10
2022-12-23T00:57:25.389Z,55.30
2022-12-23T00:58:25.546Z,58.20
2022-12-23T00:59:25.764Z,55.20
2022-12-23T01:00:25.986Z,57.00
2022-12-23T01:01:26.339Z,48.90
2022-12-23T01:02:26.583Z,56.40
2022-12-23T01:03:26.756Z,64.60
2022-12-23T01:04:26.900Z,63.70
2022-12-23T01:05:27.126Z,64.10
2022-12-23T01:06:27.335Z,54.70
2022-12-23T01:07:27.558Z,48.40
2022-12-23T01:08:27.825Z,62.20
2022-12-23T01:09:27.986Z,61.80
2022-12-23T01:10:28.237Z,62.20
2022-12-23T01:11:28.407Z,55.70
2022-12-23T01:12:28.648Z,57.20
2022-12-23T01:13:28.861Z,58.20
2022-12-23T01:14:29.090Z,58.00
2022-12-23T01:15:29.333Z,55.80
2022-12-23T01:16:29.573Z,60.10
2022-12-23T01:17:29.744Z,64.10
2022-12-23T01:18:29.971Z,59.50
2022-12-23T01:19:30.207Z,56.80
2022-12-23T01:20:30.412Z,50.80
2022-12-23T01:21:30.606Z,56.20
2022-12-23T01:22:30.822Z,45.50
2022-12-23T01:23:31.045Z,45.10
2022-12-23T01:24:31.282Z,47.90
2022-12-23T01:25:31.526Z,43.60
2022-12-23T01:26:31.694Z,53.50
2022-12-23T01:27:31.944Z,40.30
2022-12-23T01:28:32.111Z,44.60
2022-12-23T01:29:32.310Z,43.70
2022-12-23T01:30:32.656Z,45.60
2022-12-23T01:31:32.830Z,44.10
2022-12-23T01:32:32.945Z,42.80
2022-12-23T01:33:33.165Z,46.10
2022-12-23T01:34:37.100Z,47.40
2022-12-23T01:35:33.594Z,44.10
2022-12-23T01:36:33.750Z,46.10
2022-12-23T01:37:33.943Z,43.20
2022-12-23T01:38:34.137Z,46.00
2022-12-23T01:39:34.370Z,51.10
2022-12-23T01:40:34.543Z,70.60
2022-12-23T01:41:34.740Z,60.80
2022-12-23T01:42:34.962Z,65.30
2022-12-23T01:43:35.136Z,70.20
2022-12-23T01:44:35.347Z,62.80
2022-12-23T01:45:35.584Z,72.80
2022-12-23T01:46:35.700Z,65.40
2022-12-23T01:47:35.920Z,71.90
2022-12-23T01:48:36.070Z,84.50
2022-12-23T01:49:36.287Z,68.50
2022-12-23T01:50:36.502Z,61.40
2022-12-23T01:51:36.673Z,67.50
2022-12-23T01:52:36.870Z,72.70
2022-12-23T01:53:37.093Z,66.90
2022-12-23T01:54:37.316Z,62.40
2022-12-23T01:55:37.567Z,54.50
2022-12-23T01:56:37.854Z,60.20
2022-12-23T01:57:37.991Z,67.20
2022-12-23T01:58:38.227Z,66.10
2022-12-23T01:59:38.528Z,57.70
2022-12-23T02:00:38.684Z,51.70
2022-12-23T02:01:39.127Z,59.00
2022-12-23T02:02:39.231Z,64.30
2022-12-23T02:03:39.375Z,61.30
2022-12-23T02:04:39.597Z,65.10
2022-12-23T02:05:39.761Z,62.60
2022-12-23T02:06:39.990Z,68.80
2022-12-23T02:07:40.187Z,79.60
2022-12-23T02:08:40.397Z,73.40
2022-12-23T02:09:40.601Z,74.90
2022-12-23T02:10:40.783Z,83.90
2022-12-23T02:11:40.963Z,75.40
2022-12-23T02:12:41.207Z,52.50
2022-12-23T02:13:42.431Z,49.60
2022-12-23T02:14:41.592Z,72.60
2022-12-23T02:15:41.796Z,48.50
2022-12-23T02:16:42.030Z,66.90
2022-12-23T02:17:42.242Z,64.50
2022-12-23T02:18:42.400Z,89.00
2022-12-23T02:19:42.632Z,54.60
2022-12-23T02:20:42.802Z,63.90
2022-12-23T02:21:43.047Z,56.90
2022-12-23T02:22:43.219Z,54.30
2022-12-23T02:23:43.414Z,64.40
2022-12-23T02:24:43.589Z,62.50
2022-12-23T02:25:43.788Z,68.80
2022-12-23T02:26:43.995Z,70.80
2022-12-23T02:27:44.189Z,67.00
2022-12-23T02:28:44.442Z,87.90
2022-12-23T02:29:44.555Z,104.30
2022-12-23T02:30:44.861Z,71.10
2022-12-23T02:31:44.950Z,65.90
2022-12-23T02:32:45.160Z,49.80
2022-12-23T02:33:45.399Z,73.30
2022-12-23T02:34:45.651Z,76.10
2022-12-23T02:35:45.800Z,91.70
2022-12-23T02:36:45.978Z,65.10
2022-12-23T02:37:46.182Z,62.00
2022-12-23T02:38:46.382Z,59.00
2022-12-23T02:39:46.623Z,86.30
2022-12-23T02:40:46.791Z,53.50
2022-12-23T02:41:46.989Z,57.50
2022-12-23T02:42:47.197Z,67.80
2022-12-23T02:43:47.410Z,70.60
2022-12-23T02:44:47.643Z,73.00
2022-12-23T02:45:47.869Z,49.30
2022-12-23T02:46:48.026Z,50.20
2022-12-23T02:47:48.223Z,54.60
2022-12-23T02:48:48.425Z,58.10
2022-12-23T02:49:48.656Z,51.40
2022-12-23T02:50:48.806Z,53.50
2022-12-23T02:51:49.008Z,43.60
2022-12-23T02:52:49.214Z,50.70
2022-12-23T02:53:49.380Z,51.00
2022-12-23T02:54:49.624Z,58.60
2022-12-23T02:55:49.811Z,69.40
2022-12-23T02:56:50.057Z,64.20
2022-12-23T02:57:50.256Z,72.10
2022-12-23T02:58:50.472Z,61.40
2022-12-23T02:59:50.726Z,57.70
2022-12-23T03:00:50.911Z,57.10
2022-12-23T03:01:51.236Z,70.30
2022-12-23T03:02:51.560Z,80.50
2022-12-23T03:03:51.672Z,72.10
2022-12-23T03:04:51.966Z,68.70
2022-12-23T03:05:52.052Z,65.00
2022-12-23T03:06:52.248Z,75.80
2022-12-23T03:07:52.487Z,71.40
2022-12-23T03:08:52.710Z,55.40
2022-12-23T03:09:52.940Z,75.40
2022-12-23T03:10:53.211Z,81.50
2022-12-23T03:11:53.382Z,86.60
2022-12-23T03:12:53.612Z,57.20
2022-12-23T03:13:53.854Z,81.10
2022-12-23T03:14:54.058Z,81.10
2022-12-23T03:15:54.430Z,74.30
2022-12-23T03:16:54.475Z,77.40
2022-12-23T03:17:54.691Z,79.10
2022-12-23T03:18:54.911Z,90.90
2022-12-23T03:19:55.150Z,71.00
2022-12-23T03:20:55.385Z,72.50
2022-12-23T03:21:55.544Z,60.10
2022-12-23T03:22:55.793Z,65.80
2022-12-23T03:23:56.159Z,66.60
2022-12-23T03:24:56.215Z,63.30
2022-12-23T03:25:56.426Z,54.30
2022-12-23T03:26:56.640Z,96.60
2022-12-23T03:27:56.867Z,67.70
2022-12-23T03:28:57.133Z,63.40
2022-12-23T03:29:57.303Z,61.40
2022-12-23T03:30:57.588Z,75.30
2022-12-23T03:31:57.732Z,90.50
2022-12-23T03:32:57.942Z,66.90
2022-12-23T03:33:58.193Z,52.70
2022-12-23T03:34:58.406Z,97.00
2022-12-23T03:35:58.588Z,78.20
2022-12-23T03:36:58.809Z,59.30
2022-12-23T03:37:59.029Z,83.50
2022-12-23T03:38:59.353Z,87.20
2022-12-23T03:39:59.486Z,77.50
2022-12-23T03:40:59.697Z,72.60
2022-12-23T03:41:59.913Z,79.10
2022-12-23T03:43:00.134Z,89.80
2022-12-23T03:44:00.338Z,92.20
2022-12-23T03:46:00.734Z,98.40
2022-12-23T03:47:00.869Z,89.10
2022-12-23T03:48:01.043Z,66.00
2022-12-23T03:49:01.256Z,80.60
2022-12-23T03:50:01.434Z,97.90
2022-12-23T03:51:01.612Z,92.80
2022-12-23T03:52:01.792Z,78.40
2022-12-23T03:53:01.998Z,63.90
2022-12-23T03:54:02.188Z,64.60
2022-12-23T03:55:02.340Z,101.00
2022-12-23T03:56:02.525Z,61.00
2022-12-23T03:57:02.692Z,90.10
2022-12-23T03:58:02.890Z,68.00
2022-12-23T03:59:03.117Z,86.30
2022-12-23T04:00:03.293Z,65.30
2022-12-23T04:01:03.493Z,104.40
2022-12-23T04:02:03.889Z,72.10
2022-12-23T04:03:03.934Z,83.20
2022-12-23T04:04:04.194Z,58.70
2022-12-23T04:05:04.337Z,75.50
2022-12-23T04:06:04.483Z,68.80
2022-12-23T04:07:04.698Z,70.50
2022-12-23T04:08:04.916Z,82.30
2022-12-23T04:09:05.195Z,81.60
2022-12-23T04:10:05.324Z,78.50
2022-12-23T04:11:05.536Z,73.90
2022-12-23T04:12:05.758Z,82.10
2022-12-23T04:13:05.995Z,86.70
2022-12-23T04:14:06.214Z,99.30
2022-12-23T04:15:12.602Z,97.70
2022-12-23T04:16:06.667Z,62.20
2022-12-23T04:17:06.798Z,59.20
2022-12-23T04:18:07.008Z,60.30
2022-12-23T04:19:07.203Z,74.20
2022-12-23T04:20:07.542Z,70.50
2022-12-23T04:21:07.617Z,57.80
2022-12-23T04:22:07.800Z,91.70
2022-12-23T04:23:07.999Z,91.40
2022-12-23T04:24:08.189Z,91.80
2022-12-23T04:25:08.423Z,89.70
2022-12-23T04:26:08.567Z,120.90
2022-12-23T04:27:08.750Z,61.30
2022-12-23T04:28:08.948Z,93.40
2022-12-23T04:29:09.133Z,81.30
2022-12-23T04:30:09.358Z,90.40
2022-12-23T04:31:09.595Z,73.20
2022-12-23T04:32:09.704Z,95.00
2022-12-23T04:33:09.932Z,71.40
2022-12-23T04:34:10.087Z,108.00
2022-12-23T04:35:10.311Z,90.60
2022-12-23T04:36:10.468Z,73.90
2022-12-23T04:37:10.649Z,78.70
2022-12-23T04:38:10.921Z,91.70
2022-12-23T04:39:11.028Z,88.80
2022-12-23T04:40:11.220Z,103.10
2022-12-23T04:41:11.403Z,99.50
2022-12-23T04:42:11.575Z,102.50
2022-12-23T04:43:11.795Z,72.30
2022-12-23T04:44:11.963Z,75.20
2022-12-23T04:45:12.133Z,81.10
2022-12-23T04:46:12.342Z,84.10
2022-12-23T04:47:12.485Z,114.20
2022-12-23T04:48:12.689Z,113.70
2022-12-23T04:49:12.867Z,127.60
2022-12-23T04:50:13.056Z,78.60
2022-12-23T04:51:13.243Z,85.80
2022-12-23T04:52:13.433Z,92.20
2022-12-23T04:53:13.599Z,78.40
2022-12-23T04:54:13.818Z,80.00
2022-12-23T04:55:13.980Z,87.60
2022-12-23T04:56:14.183Z,97.40
2022-12-23T04:57:14.363Z,114.00
2022-12-23T04:58:14.567Z,130.30
2022-12-23T04:59:14.775Z,127.60
2022-12-23T05:00:14.930Z,135.40
2022-12-23T05:01:15.220Z,84.00
2022-12-23T05:02:15.557Z,111.30
2022-12-23T05:03:15.650Z,114.40
2022-12-23T05:04:15.768Z,127.50
2022-12-23T05:05:15.920Z,119.20
2022-12-23T05:06:16.137Z,122.70
2022-12-23T05:07:16.300Z,95.30
2022-12-23T05:08:16.531Z,136.80
2022-12-23T05:09:16.678Z,105.30
2022-12-23T05:10:16.890Z,85.40
2022-12-23T05:11:17.089Z,93.60
2022-12-23T05:12:17.240Z,85.40
2022-12-23T05:13:17.454Z,119.20
2022-12-23T05:14:17.599Z,139.70
2022-12-23T05:15:17.799Z,87.60
2022-12-23T05:16:18.158Z,101.40
2022-12-23T05:17:18.173Z,113.60
2022-12-23T05:18:18.374Z,93.80
2022-12-23T05:19:18.555Z,111.70
2022-12-23T05:20:18.774Z,110.50
2022-12-23T05:21:18.936Z,108.60
2022-12-23T05:22:19.094Z,126.10
2022-12-23T05:23:19.289Z,141.10
2022-12-23T05:24:19.704Z,114.50
2022-12-23T05:25:19.664Z,109.10
2022-12-23T05:26:19.957Z,167.40
2022-12-23T05:27:20.037Z,117.70
2022-12-23T05:28:20.238Z,143.50
2022-12-23T05:29:20.419Z,165.80
2022-12-23T05:30:20.601Z,168.00
2022-12-23T05:31:20.850Z,197.70
2022-12-23T05:32:20.985Z,167.90
2022-12-23T05:33:21.234Z,230.70
2022-12-23T05:34:21.420Z,91.80
2022-12-23T05:35:21.703Z,145.10
2022-12-23T05:36:21.910Z,128.40
2022-12-23T05:37:22.065Z,109.60
2022-12-23T05:38:22.302Z,94.80
2022-12-23T05:39:22.496Z,242.40
2022-12-23T05:40:25.076Z,180.90
2022-12-23T05:41:22.979Z,219.80
2022-12-23T05:42:23.155Z,198.60
2022-12-23T05:43:23.365Z,174.10
2022-12-23T05:44:23.593Z,132.10
2022-12-23T05:45:23.791Z,176.50
2022-12-23T05:46:26.813Z,274.50
2022-12-23T05:47:24.219Z,244.60
2022-12-23T05:48:24.464Z,175.90
2022-12-23T05:49:24.678Z,145.20
2022-12-23T05:50:24.896Z,284.70
2022-12-23T05:51:25.095Z,255.40
2022-12-23T05:52:25.315Z,388.80
2022-12-23T05:53:25.557Z,216.50
2022-12-23T05:54:25.743Z,247.40
2022-12-23T05:55:26.005Z,251.50
2022-12-23T05:56:26.178Z,113.60
2022-12-23T05:57:26.411Z,374.40
2022-12-23T05:58:26.639Z,301.60
2022-12-23T05:59:30.920Z,382.30
2022-12-23T06:00:27.118Z,355.10
2022-12-23T06:01:27.345Z,223.10
2022-12-23T06:02:27.768Z,314.90
2022-12-23T06:03:28.039Z,146.40
2022-12-23T06:04:28.085Z,281.30
2022-12-23T06:05:28.241Z,291.40
2022-12-23T06:06:28.403Z,344.80
2022-12-23T06:07:28.620Z,307.50
2022-12-23T06:08:28.862Z,245.20
2022-12-23T06:09:29.028Z,335.90
2022-12-23T06:10:29.247Z,434.50
2022-12-23T06:11:29.546Z,509.70
2022-12-23T06:12:29.660Z,435.50
2022-12-23T06:13:29.881Z,388.80
2022-12-23T06:14:30.113Z,447.40
2022-12-23T06:15:30.644Z,405.30
2022-12-23T06:16:30.741Z,414.30
2022-12-23T06:17:30.806Z,314.60
2022-12-23T06:18:31.044Z,340.90
2022-12-23T06:19:31.253Z,235.70
2022-12-23T06:20:31.519Z,228.80
2022-12-23T06:21:31.705Z,324.30
2022-12-23T06:22:31.913Z,283.20
2022-12-23T06:23:32.142Z,226.60
2022-12-23T06:24:32.372Z,291.60
2022-12-23T06:25:32.652Z,207.10
2022-12-23T06:26:32.816Z,248.90
2022-12-23T06:27:33.033Z,101.40
2022-12-23T06:28:33.258Z,314.60
2022-12-23T06:29:33.482Z,416.80
2022-12-23T06:30:33.699Z,393.70
2022-12-23T06:31:33.943Z,433.20
2022-12-23T06:32:38.236Z,378.50
2022-12-23T06:33:34.307Z,194.90
2022-12-23T06:34:34.535Z,215.40
2022-12-23T06:35:34.897Z,167.20
2022-12-23T06:36:34.984Z,328.20
2022-12-23T06:37:35.304Z,164.80
2022-12-23T06:38:35.414Z,97.80
2022-12-23T06:39:35.680Z,164.00
2022-12-23T06:40:35.808Z,144.40
2022-12-23T06:41:35.984Z,386.60
2022-12-23T06:42:36.198Z,287.50
2022-12-23T06:43:36.335Z,345.40
2022-12-23T06:44:36.515Z,286.10
2022-12-23T06:45:36.725Z,270.00
2022-12-23T06:46:36.899Z,93.40
2022-12-23T06:47:37.119Z,113.00
2022-12-23T06:48:37.278Z,337.10
2022-12-23T06:49:37.454Z,300.30
2022-12-23T06:50:37.697Z,425.70
2022-12-23T06:51:37.819Z,227.60
2022-12-23T06:52:38.050Z,319.20
2022-12-23T06:53:38.195Z,187.90
2022-12-23T06:54:38.379Z,314.10
2022-12-23T06:55:38.578Z,144.60
2022-12-23T06:56:38.785Z,190.70
2022-12-23T06:57:39.004Z,260.50
2022-12-23T06:58:39.179Z,243.60
2022-12-23T06:59:39.373Z,218.20
2022-12-23T07:00:39.568Z,110.60
2022-12-23T07:01:40.060Z,82.30
2022-12-23T07:02:40.257Z,134.00
2022-12-23T07:03:40.181Z,312.80
2022-12-23T07:04:40.339Z,173.20
2022-12-23T07:05:40.662Z,269.30
2022-12-23T07:06:40.716Z,251.90
2022-12-23T07:07:40.943Z,258.50
2022-12-23T07:08:41.122Z,276.50
2022-12-23T07:09:41.319Z,215.50
2022-12-23T07:10:41.475Z,166.60
2022-12-23T07:11:41.666Z,213.30
2022-12-23T07:12:47.455Z,238.30
2022-12-23T07:13:42.050Z,258.50
2022-12-23T07:14:42.219Z,178.80
2022-12-23T07:15:42.399Z,179.40
2022-12-23T07:16:42.724Z,254.30
2022-12-23T07:17:42.788Z,218.00
2022-12-23T07:18:42.999Z,191.50
2022-12-23T07:19:43.157Z,203.80
2022-12-23T07:20:43.353Z,211.90
2022-12-23T07:21:43.643Z,233.80
2022-12-23T07:22:43.708Z,191.70
2022-12-23T07:23:43.865Z,301.80
2022-12-23T07:24:44.044Z,369.10
2022-12-23T07:25:44.251Z,377.80
2022-12-23T07:26:44.427Z,269.30
2022-12-23T07:27:44.600Z,331.20
2022-12-23T07:28:44.760Z,144.20
2022-12-23T07:29:44.949Z,262.70
2022-12-23T07:30:45.121Z,156.00
2022-12-23T07:31:45.473Z,253.40
2022-12-23T07:32:45.499Z,260.50
2022-12-23T07:33:45.663Z,304.50
2022-12-23T07:34:45.872Z,128.30
2022-12-23T07:35:46.039Z,239.80
2022-12-23T07:36:46.320Z,203.90
2022-12-23T07:37:46.471Z,356.80
2022-12-23T07:38:46.650Z,363.40
2022-12-23T07:39:46.830Z,293.10
2022-12-23T07:40:47.038Z,192.10
2022-12-23T07:41:47.282Z,246.50
2022-12-23T07:42:47.650Z,264.40
2022-12-23T07:43:47.699Z,358.90
2022-12-23T07:44:47.923Z,248.80
2022-12-23T07:45:52.537Z,130.40
2022-12-23T07:46:48.416Z,95.50
2022-12-23T07:47:48.622Z,294.60
2022-12-23T07:48:48.865Z,324.70
2022-12-23T07:49:49.051Z,152.90
2022-12-23T07:50:49.295Z,205.30
2022-12-23T07:51:49.515Z,144.00
2022-12-23T07:52:49.772Z,254.30
2022-12-23T07:53:49.943Z,220.70
2022-12-23T07:54:50.148Z,171.20
2022-12-23T07:55:56.277Z,259.80
2022-12-23T07:56:50.594Z,300.00
2022-12-23T07:57:50.847Z,279.70
2022-12-23T07:58:51.105Z,381.80
2022-12-23T07:59:51.331Z,241.10
2022-12-23T08:00:51.516Z,223.80
2022-12-23T08:01:51.822Z,122.10
2022-12-23T08:02:52.180Z,139.00
2022-12-23T08:03:52.288Z,95.80
2022-12-23T08:04:52.468Z,325.30
2022-12-23T08:05:52.589Z,285.40
2022-12-23T08:06:52.850Z,183.90
2022-12-23T08:07:53.032Z,151.30
2022-12-23T08:08:53.274Z,270.10
2022-12-23T08:09:53.452Z,231.40
2022-12-23T08:10:53.669Z,209.80
2022-12-23T08:11:53.888Z,124.30
2022-12-23T08:12:54.101Z,171.00
2022-12-23T08:13:54.356Z,223.90
2022-12-23T08:14:54.585Z,202.30
2022-12-23T08:15:54.770Z,219.10
2022-12-23T08:16:55.014Z,181.20
2022-12-23T08:17:55.190Z,82.20
2022-12-23T08:18:55.394Z,155.40
2022-12-23T08:19:55.680Z,138.40
2022-12-23T08:20:55.815Z,202.10
2022-12-23T08:21:56.178Z,169.20
2022-12-23T08:22:56.227Z,193.70
2022-12-23T08:23:56.431Z,160.30
2022-12-23T08:24:56.672Z,165.70
2022-12-23T08:25:56.846Z,178.00
2022-12-23T08:26:57.062Z,158.60
2022-12-23T08:27:57.438Z,184.60
2022-12-23T08:28:57.529Z,132.70
2022-12-23T08:29:57.702Z,140.20
2022-12-23T08:30:57.962Z,146.60
2022-12-23T08:31:58.130Z,175.60
2022-12-23T08:32:58.344Z,124.40
2022-12-23T08:33:58.577Z,113.10
2022-12-23T08:34:58.756Z,106.80
2022-12-23T08:35:58.951Z,101.10
2022-12-23T08:36:59.274Z,166.70
2022-12-23T08:37:59.393Z,134.70
2022-12-23T08:38:59.602Z,147.60
2022-12-23T08:39:59.786Z,92.40
2022-12-23T08:41:00.005Z,126.40
2022-12-23T08:42:00.212Z,144.40
2022-12-23T08:43:00.417Z,151.90
2022-12-23T08:44:00.696Z,143.00
2022-12-23T08:45:00.850Z,133.50
2022-12-23T08:46:01.145Z,151.30
2022-12-23T08:47:01.258Z,138.80
2022-12-23T08:48:01.467Z,145.50
2022-12-23T08:49:01.714Z,150.60
2022-12-23T08:50:01.897Z,176.40
2022-12-23T08:51:02.097Z,143.30
2022-12-23T08:52:02.400Z,138.00
2022-12-23T08:53:02.535Z,178.20
2022-12-23T08:54:02.843Z,206.70
2022-12-23T08:55:02.962Z,175.40
2022-12-23T08:56:03.519Z,150.30
2022-12-23T08:57:03.356Z,243.50
2022-12-23T08:58:03.557Z,216.70
2022-12-23T08:59:03.784Z,212.60
2022-12-23T09:00:03.960Z,161.70
2022-12-23T09:01:04.244Z,147.60
2022-12-23T09:02:04.537Z,203.30
2022-12-23T09:03:04.752Z,136.60
2022-12-23T09:04:04.913Z,198.60
2022-12-23T09:05:04.951Z,144.20
2022-12-23T09:06:05.145Z,272.10
2022-12-23T09:07:05.319Z,164.10
2022-12-23T09:08:05.488Z,195.30
2022-12-23T09:09:05.668Z,239.80
2022-12-23T09:10:05.813Z,149.90
2022-12-23T09:11:05.987Z,144.90
2022-12-23T09:12:06.187Z,227.90
2022-12-23T09:13:06.352Z,103.50
2022-12-23T09:14:06.530Z,164.70
2022-12-23T09:15:06.715Z,152.40
2022-12-23T09:16:06.944Z,239.30
2022-12-23T09:17:07.119Z,81.10
2022-12-23T09:18:07.231Z,251.70
2022-12-23T09:19:07.418Z,242.30
2022-12-23T09:20:07.640Z,185.70
2022-12-23T09:21:07.846Z,214.70
2022-12-23T09:22:08.083Z,134.90
2022-12-23T09:23:08.291Z,116.60
2022-12-23T09:24:08.476Z,138.20
2022-12-23T09:25:08.687Z,100.10
2022-12-23T09:26:08.893Z,112.20
2022-12-23T09:27:09.150Z,93.80
2022-12-23T09:28:09.325Z,75.50
2022-12-23T09:29:09.581Z,98.60
2022-12-23T09:30:09.742Z,93.80
2022-12-23T09:31:10.017Z,97.70
2022-12-23T09:32:10.155Z,87.40
2022-12-23T09:33:10.359Z,84.40
2022-12-23T09:34:10.591Z,103.20
2022-12-23T09:35:10.760Z,70.70
2022-12-23T09:36:10.976Z,87.70
2022-12-23T09:37:11.176Z,86.70
2022-12-23T09:38:11.414Z,76.30
2022-12-23T09:39:11.617Z,80.30
2022-12-23T09:40:11.778Z,79.40
2022-12-23T09:41:12.065Z,75.70
2022-12-23T09:42:12.178Z,74.30
2022-12-23T09:43:12.390Z,71.80
2022-12-23T09:44:12.587Z,63.80
2022-12-23T09:45:12.792Z,72.20
2022-12-23T09:46:13.051Z,70.00
2022-12-23T09:47:13.183Z,60.40
2022-12-23T09:48:13.364Z,62.70
2022-12-23T09:49:13.557Z,65.20
2022-12-23T09:50:13.780Z,70.80
2022-12-23T09:51:13.989Z,65.20
2022-12-23T09:52:14.148Z,72.90
2022-12-23T09:53:14.365Z,63.50
2022-12-23T09:54:17.040Z,62.80
2022-12-23T09:55:14.760Z,68.00
2022-12-23T09:56:14.927Z,65.80
2022-12-23T09:57:15.121Z,68.90
2022-12-23T09:58:15.307Z,59.20
2022-12-23T09:59:15.505Z,63.60
2022-12-23T10:00:15.727Z,56.60
2022-12-23T10:01:15.968Z,60.50
2022-12-23T10:02:16.202Z,58.40
2022-12-23T10:03:16.616Z,57.60
2022-12-23T10:04:16.581Z,58.20
2022-12-23T10:05:16.694Z,63.90
2022-12-23T10:06:16.889Z,66.60
2022-12-23T10:07:17.109Z,55.00
2022-12-23T10:08:17.247Z,57.60
2022-12-23T10:09:17.400Z,55.80
2022-12-23T10:10:17.568Z,55.40
2022-12-23T10:11:17.752Z,57.60
2022-12-23T10:12:22.237Z,49.60
2022-12-23T10:13:18.088Z,55.30
2022-12-23T10:14:18.273Z,48.50
2022-12-23T10:15:18.443Z,53.70
2022-12-23T10:16:18.698Z,56.10
2022-12-23T10:17:18.916Z,54.00
2022-12-23T10:18:18.984Z,51.60
2022-12-23T10:19:19.129Z,57.50
2022-12-23T10:20:19.482Z,53.80
2022-12-23T10:21:19.508Z,55.30
2022-12-23T10:22:19.701Z,55.90
2022-12-23T10:23:19.846Z,51.20
2022-12-23T10:24:20.056Z,48.80
2022-12-23T10:25:20.205Z,50.20
2022-12-23T10:26:20.407Z,50.90
2022-12-23T10:27:20.541Z,48.80
2022-12-23T10:28:20.737Z,49.60
2022-12-23T10:29:20.891Z,45.30
2022-12-23T10:30:53.518Z,46.40
2022-12-23T10:31:39.710Z,43.60
2022-12-23T10:32:21.571Z,45.40
2022-12-23T10:33:21.680Z,47.30
2022-12-23T10:34:21.871Z,45.20
2022-12-23T10:35:22.099Z,51.10
2022-12-23T10:36:22.347Z,47.40
2022-12-23T10:37:22.464Z,44.20
2022-12-23T10:38:22.664Z,42.90
2022-12-23T10:39:22.919Z,46.20
2022-12-23T10:40:23.079Z,45.90
2022-12-23T10:41:23.213Z,47.70
2022-12-23T10:42:23.344Z,44.40
2022-12-23T10:43:23.506Z,49.50
2022-12-23T10:44:23.661Z,44.60
2022-12-23T10:45:23.915Z,44.40
2022-12-23T10:46:24.043Z,47.30
2022-12-23T10:47:24.146Z,48.50
2022-12-23T10:48:24.307Z,47.50
2022-12-23T10:49:24.514Z,43.70
2022-12-23T10:50:24.729Z,42.10
2022-12-23T10:51:25.042Z,46.00
2022-12-23T10:52:25.023Z,47.40
2022-12-23T10:53:25.183Z,44.40
2022-12-23T10:54:25.397Z,47.10
2022-12-23T10:55:31.354Z,47.40
2022-12-23T10:56:25.687Z,41.80
2022-12-23T10:57:25.857Z,42.40
2022-12-23T10:58:26.032Z,44.20
2022-12-23T10:59:26.194Z,43.40
2022-12-23T11:00:26.609Z,40.50
2022-12-23T11:01:27.691Z,42.90
2022-12-23T11:02:26.907Z,42.60
2022-12-23T11:03:27.016Z,41.90
2022-12-23T11:04:27.031Z,42.50
2022-12-23T11:05:27.203Z,42.10
2022-12-23T11:06:33.136Z,45.00
2022-12-23T11:07:44.197Z,41.50
2022-12-23T11:08:27.723Z,43.00
2022-12-23T11:09:27.946Z,39.00
2022-12-23T11:10:28.070Z,39.00
2022-12-23T11:11:28.231Z,39.10
2022-12-23T11:12:28.511Z,39.10
2022-12-23T11:13:28.561Z,36.80
2022-12-23T11:14:28.696Z,38.10
2022-12-23T11:15:28.853Z,39.00
2022-12-23T11:16:29.105Z,36.30
2022-12-23T11:17:29.196Z,38.70
2022-12-23T11:18:29.326Z,38.20
2022-12-23T11:19:29.519Z,38.40
2022-12-23T11:20:29.700Z,35.70
2022-12-23T11:21:29.835Z,39.70
2022-12-23T11:22:30.006Z,36.00
2022-12-23T11:23:30.182Z,38.70
2022-12-23T11:24:30.320Z,37.50
2022-12-23T11:25:30.522Z,37.20
2022-12-23T11:26:30.697Z,36.90
2022-12-23T11:27:30.827Z,35.80
2022-12-23T11:28:30.988Z,36.20
2022-12-23T11:29:31.200Z,41.50
2022-12-23T11:30:31.323Z,40.90
2022-12-23T11:31:31.594Z,36.80
2022-12-23T11:32:31.654Z,34.90
2022-12-23T11:33:31.849Z,36.70
2022-12-23T11:34:31.986Z,37.50
2022-12-23T11:35:32.195Z,36.20
2022-12-23T11:36:32.371Z,36.50
2022-12-23T11:37:32.495Z,37.10
2022-12-23T11:38:32.711Z,36.10
2022-12-23T11:39:32.849Z,33.40
2022-12-23T11:40:33.034Z,32.50
2022-12-23T11:41:33.221Z,34.10
2022-12-23T11:42:33.351Z,32.60
2022-12-23T11:43:33.543Z,33.30
2022-12-23T11:44:33.706Z,33.70
2022-12-23T11:45:33.896Z,33.20
2022-12-23T11:46:34.020Z,33.00
2022-12-23T11:47:34.188Z,31.30
2022-12-23T11:48:34.494Z,31.70
2022-12-23T11:49:34.535Z,34.60
2022-12-23T11:50:34.716Z,32.50
2022-12-23T11:51:34.898Z,32.80
2022-12-23T11:52:35.054Z,32.20
2022-12-23T11:53:35.343Z,27.20
2022-12-23T11:54:35.371Z,31.00
2022-12-23T11:55:35.608Z,29.80
2022-12-23T11:56:35.765Z,34.20
2022-12-23T11:57:35.847Z,29.40
2022-12-23T11:58:36.019Z,31.30
2022-12-23T11:59:36.178Z,31.00
2022-12-23T12:00:36.310Z,32.00
2022-12-23T12:01:36.458Z,30.60
2022-12-23T12:02:36.760Z,33.40
2022-12-23T12:03:36.825Z,32.20
2022-12-23T12:04:36.961Z,32.60
2022-12-23T12:05:37.104Z,31.80
2022-12-23T12:06:37.249Z,31.00
2022-12-23T12:07:37.413Z,30.90
2022-12-23T12:08:37.559Z,32.40
2022-12-23T12:09:37.742Z,32.00
2022-12-23T12:10:37.898Z,32.30
2022-12-23T12:11:38.026Z,33.00
2022-12-23T12:12:38.173Z,31.50
2022-12-23T12:13:38.333Z,29.90
2022-12-23T12:14:38.550Z,27.70
2022-12-23T12:15:38.700Z,28.90
2022-12-23T12:16:39.000Z,29.10
2022-12-23T12:17:39.081Z,29.00
2022-12-23T12:18:39.281Z,30.40
2022-12-23T12:19:39.499Z,27.80
2022-12-23T12:20:39.671Z,26.50
2022-12-23T12:21:39.859Z,28.30
2022-12-23T12:22:40.052Z,30.20
2022-12-23T12:23:40.243Z,31.30
2022-12-23T12:24:40.469Z,30.00
2022-12-23T12:25:40.658Z,28.50
2022-12-23T12:26:40.823Z,30.60
2022-12-23T12:27:41.010Z,30.30
2022-12-23T12:28:41.202Z,29.10
2022-12-23T12:29:41.441Z,31.20
2022-12-23T12:30:41.717Z,28.60
2022-12-23T12:31:41.764Z,27.90
2022-12-23T12:32:41.948Z,31.30
2022-12-23T12:33:42.146Z,27.80
2022-12-23T12:34:42.361Z,27.20
2022-12-23T12:35:42.519Z,27.50
2022-12-23T12:36:42.821Z,28.00
2022-12-23T12:37:42.935Z,28.90
2022-12-23T12:38:43.092Z,28.10
2022-12-23T12:39:43.300Z,31.50
2022-12-23T12:40:43.524Z,26.50
2022-12-23T12:41:43.697Z,28.80
2022-12-23T12:42:43.834Z,29.00
2022-12-23T12:43:43.996Z,29.10
2022-12-23T12:44:44.161Z,28.20
2022-12-23T12:45:44.376Z,30.70
2022-12-23T12:46:44.531Z,30.70
2022-12-23T12:47:53.859Z,29.90